Terminal Aerodrome Forecast
Issued by NWS Wilmington, OH

Current Version | Previous Version | Text Only | Print | Product List | Glossary Off
Versions: 1 2 3 4 5 6 7 8 9 10 11 12 13 14 15 16 17 18 19 20 21 22 23

000
FTUS41 KILN 261745
TAFDAY
TAF
KDAY 261745Z 2618/2718 18015G23KT P6SM SKC
     FM270500 17014G22KT P6SM SCT250 WS020/19045KT
     FM271100 18016G24KT P6SM VCSH SCT040 OVC080
     FM271500 21018G25KT P6SM OVC025=

USA.gov is the U.S. government's official web portal to all federal, state and local government web resources and services.